createdAt,value
2022-09-11T00:00:31.710Z,53.91
2022-09-11T00:05:39.241Z,52.68
2022-09-11T00:10:43.281Z,52.63
2022-09-11T00:15:49.941Z,53.00
2022-09-11T00:20:55.093Z,53.33
2022-09-11T00:26:02.315Z,53.05
2022-09-11T00:31:08.944Z,54.02
2022-09-11T00:36:15.722Z,53.55
2022-09-11T00:41:24.192Z,54.09
2022-09-11T00:46:37.149Z,54.46
2022-09-11T00:51:41.686Z,54.48
2022-09-11T00:56:45.249Z,54.10
2022-09-11T01:01:50.220Z,54.77
2022-09-11T01:06:56.542Z,53.89
2022-09-11T01:12:06.655Z,55.30
2022-09-11T01:17:20.372Z,53.76
2022-09-11T01:22:39.643Z,54.71
2022-09-11T01:27:46.917Z,55.63
2022-09-11T01:33:06.186Z,58.13
2022-09-11T01:38:15.899Z,58.12
2022-09-11T01:43:24.376Z,58.34
2022-09-11T01:48:31.865Z,57.12
2022-09-11T01:53:38.788Z,57.51
2022-09-11T01:58:44.538Z,59.26
2022-09-11T02:03:50.769Z,60.43
2022-09-11T02:08:59.785Z,58.70
2022-09-11T02:14:10.367Z,61.75
2022-09-11T02:19:17.028Z,64.00
2022-09-11T02:24:22.672Z,60.48
2022-09-11T02:29:27.495Z,60.09
2022-09-11T02:34:34.226Z,61.59
2022-09-11T02:39:49.778Z,61.42
2022-09-11T02:45:00.264Z,58.72
2022-09-11T02:50:10.265Z,58.82
2022-09-11T02:55:20.021Z,60.56
2022-09-11T03:00:24.865Z,61.83
2022-09-11T03:05:29.427Z,61.63
2022-09-11T03:10:32.881Z,61.88
2022-09-11T03:15:37.723Z,60.41
2022-09-11T03:20:41.519Z,62.53
2022-09-11T03:25:45.259Z,64.07
2022-09-11T03:30:52.727Z,58.92
2022-09-11T03:35:56.312Z,59.77
2022-09-11T03:40:59.794Z,59.82
2022-09-11T03:46:05.218Z,62.30
2022-09-11T03:51:08.967Z,62.83
2022-09-11T03:56:14.978Z,62.59
2022-09-11T04:01:25.453Z,61.37
2022-09-11T04:06:29.211Z,60.53
2022-09-11T04:11:37.445Z,58.82
2022-09-11T04:16:44.268Z,61.12
2022-09-11T04:21:47.905Z,59.34
2022-09-11T04:26:53.130Z,60.30
2022-09-11T04:32:02.878Z,58.43
2022-09-11T04:37:11.519Z,59.96
2022-09-11T04:42:16.775Z,60.28
2022-09-11T04:47:22.503Z,59.49
2022-09-11T04:52:26.787Z,61.55
2022-09-11T04:57:31.144Z,62.06
2022-09-11T05:02:37.594Z,61.20
2022-09-11T05:07:41.673Z,63.54
2022-09-11T05:12:47.045Z,62.83
2022-09-11T05:17:52.245Z,64.02
2022-09-11T05:22:58.419Z,61.80
2022-09-11T05:28:01.946Z,60.21
2022-09-11T05:33:07.668Z,60.50
2022-09-11T05:38:11.822Z,60.55
2022-09-11T05:43:16.515Z,59.78
2022-09-11T05:48:21.416Z,61.73
2022-09-11T05:53:26.763Z,59.06
2022-09-11T05:58:32.585Z,58.90
2022-09-11T06:03:38.675Z,58.86
2022-09-11T06:08:44.052Z,58.69
2022-09-11T06:13:48.288Z,57.53
2022-09-11T06:18:54.673Z,59.38
2022-09-11T06:23:58.720Z,60.44
2022-09-11T06:29:03.126Z,60.61
2022-09-11T06:34:09.113Z,60.64
2022-09-11T06:39:12.673Z,59.54
2022-09-11T06:44:17.222Z,60.43
2022-09-11T06:49:22.298Z,59.17
2022-09-11T06:54:44.494Z,57.51
2022-09-11T06:59:52.481Z,57.10
2022-09-11T07:04:58.618Z,56.31
2022-09-11T07:10:07.081Z,55.72
2022-09-11T07:15:11.851Z,55.33
2022-09-11T07:20:18.500Z,54.64
2022-09-11T07:25:22.079Z,55.74
2022-09-11T07:30:26.157Z,56.78
2022-09-11T07:35:37.014Z,55.29
2022-09-11T07:40:40.621Z,54.58
2022-09-11T07:45:44.231Z,55.71
2022-09-11T07:50:58.054Z,55.14
2022-09-11T07:56:04.265Z,54.93
2022-09-11T08:01:08.985Z,55.48
2022-09-11T08:06:20.155Z,55.07
2022-09-11T08:11:28.838Z,55.49
2022-09-11T08:16:32.390Z,56.06
2022-09-11T08:21:38.515Z,58.02
2022-09-11T08:26:44.663Z,56.08
2022-09-11T08:31:52.180Z,54.86
2022-09-11T08:36:57.179Z,53.27
2022-09-11T08:42:05.015Z,52.95
2022-09-11T08:47:11.312Z,53.95
2022-09-11T08:52:17.177Z,50.78
2022-09-11T08:57:25.302Z,50.33
2022-09-11T09:02:45.683Z,49.80
2022-09-11T09:08:02.514Z,49.17
2022-09-11T09:13:15.436Z,52.73
2022-09-11T09:18:26.844Z,48.66
2022-09-11T09:23:34.204Z,49.50
2022-09-11T09:28:43.298Z,51.52
2022-09-11T09:33:49.990Z,49.95
2022-09-11T09:38:55.065Z,49.50
2022-09-11T09:44:04.940Z,50.24
2022-09-11T09:49:10.244Z,49.07
2022-09-11T09:54:17.009Z,48.21
2022-09-11T09:59:23.326Z,48.27
2022-09-11T10:04:27.959Z,47.02
2022-09-11T10:09:32.769Z,45.72
2022-09-11T10:14:51.544Z,47.08
2022-09-11T10:19:57.042Z,47.63
2022-09-11T10:25:11.372Z,45.83
2022-09-11T10:30:26.926Z,46.68
2022-09-11T10:35:31.739Z,46.31
2022-09-11T10:40:38.865Z,45.70
2022-09-11T10:45:42.339Z,46.52
2022-09-11T10:50:45.826Z,44.79
2022-09-11T10:55:54.813Z,45.61
2022-09-11T11:00:58.359Z,46.91
2022-09-11T11:06:09.250Z,45.70
2022-09-11T11:11:23.096Z,46.18
2022-09-11T11:16:33.748Z,45.67
2022-09-11T11:21:48.828Z,46.87
2022-09-11T11:27:04.828Z,46.04
2022-09-11T11:32:27.820Z,45.64
2022-09-11T11:37:35.134Z,45.54
2022-09-11T11:42:43.913Z,44.75
2022-09-11T11:47:47.908Z,45.47
2022-09-11T11:52:57.884Z,44.72
2022-09-11T11:58:07.860Z,42.79
2022-09-11T12:03:16.327Z,42.23
2022-09-11T12:08:19.794Z,41.85
2022-09-11T12:13:29.397Z,41.92
2022-09-11T12:18:32.931Z,45.23
2022-09-11T12:24:23.036Z,44.04
2022-09-11T12:29:57.735Z,42.83
2022-09-11T12:35:04.910Z,41.22
2022-09-11T12:40:17.039Z,41.63
2022-09-11T12:45:36.579Z,41.22
2022-09-11T12:50:40.276Z,43.16
2022-09-11T12:55:52.840Z,38.68
2022-09-11T13:01:06.097Z,36.92
2022-09-11T13:06:11.755Z,35.96
2022-09-11T13:11:37.969Z,38.23
2022-09-11T13:16:46.899Z,36.99
2022-09-11T13:21:52.129Z,36.22
2022-09-11T13:26:58.060Z,37.99
2022-09-11T13:32:11.443Z,38.07
2022-09-11T13:37:26.482Z,39.06
2022-09-11T13:42:30.512Z,40.19
2022-09-11T13:47:42.038Z,39.09
2022-09-11T13:52:46.992Z,38.48
2022-09-11T13:57:55.753Z,38.41
2022-09-11T14:03:00.611Z,37.97
2022-09-11T14:08:07.506Z,38.72
2022-09-11T14:13:15.019Z,38.67
2022-09-11T14:18:27.939Z,37.46
2022-09-11T14:23:31.790Z,38.09
2022-09-11T14:28:37.966Z,35.38
2022-09-11T14:33:43.138Z,36.02
2022-09-11T14:38:47.477Z,36.93
2022-09-11T14:43:50.910Z,36.61
2022-09-11T14:48:55.689Z,38.62
2022-09-11T14:53:59.079Z,38.38
2022-09-11T14:59:03.003Z,39.71
2022-09-11T15:04:07.789Z,40.41
2022-09-11T15:09:11.184Z,39.11
2022-09-11T15:14:32.150Z,39.74
2022-09-11T15:19:40.854Z,39.57
2022-09-11T15:24:44.256Z,39.83
2022-09-11T15:29:47.629Z,39.71
2022-09-11T15:34:53.898Z,40.32
2022-09-11T15:39:57.372Z,38.79
2022-09-11T15:45:01.754Z,38.38
2022-09-11T15:50:07.691Z,39.06
2022-09-11T15:55:11.082Z,38.09
2022-09-11T16:00:15.866Z,37.47
2022-09-11T16:05:22.998Z,37.16
2022-09-11T16:10:27.776Z,36.65
2022-09-11T16:15:31.210Z,36.68
2022-09-11T16:20:35.910Z,38.68
2022-09-11T16:25:40.171Z,37.43
2022-09-11T16:30:46.644Z,37.96
2022-09-11T16:36:01.549Z,37.95
2022-09-11T16:41:07.440Z,39.93
2022-09-11T16:46:10.839Z,39.07
2022-09-11T16:51:16.506Z,40.34
2022-09-11T16:56:21.345Z,39.42
2022-09-11T17:01:26.901Z,39.63
2022-09-11T17:06:32.139Z,40.43
2022-09-11T17:11:37.069Z,40.62
2022-09-11T17:16:40.890Z,41.17
2022-09-11T17:21:45.733Z,42.04
2022-09-11T17:26:50.594Z,42.09
2022-09-11T17:32:16.693Z,42.58
2022-09-11T17:37:20.071Z,43.27
2022-09-11T17:42:23.709Z,42.87
2022-09-11T17:47:30.701Z,43.98
2022-09-11T17:52:36.867Z,44.56
2022-09-11T17:57:40.638Z,44.47
2022-09-11T18:02:44.505Z,44.38
2022-09-11T18:07:50.526Z,45.53
2022-09-11T18:12:53.905Z,44.96
2022-09-11T18:17:57.302Z,45.93
2022-09-11T18:23:02.818Z,46.71
2022-09-11T18:28:07.015Z,47.10
2022-09-11T18:33:11.058Z,47.50
2022-09-11T18:38:15.882Z,47.23
2022-09-11T18:43:19.389Z,47.96
2022-09-11T18:48:22.994Z,48.76
2022-09-11T18:53:27.806Z,48.65
2022-09-11T18:58:31.844Z,49.17
2022-09-11T19:03:36.548Z,49.24
2022-09-11T19:08:42.929Z,48.90
2022-09-11T19:13:47.299Z,49.41
2022-09-11T19:18:50.896Z,49.72
2022-09-11T19:24:00.375Z,49.57
2022-09-11T19:29:04.662Z,49.39
2022-09-11T19:34:09.930Z,50.61
2022-09-11T19:39:14.742Z,49.95
2022-09-11T19:44:19.803Z,49.53
2022-09-11T19:49:23.415Z,49.67
2022-09-11T19:54:30.570Z,49.61
2022-09-11T19:59:34.185Z,49.63
2022-09-11T20:04:37.563Z,49.80
2022-09-11T20:09:42.815Z,50.01
2022-09-11T20:14:46.219Z,50.32
2022-09-11T20:19:49.633Z,50.88
2022-09-11T20:24:54.403Z,51.62
2022-09-11T20:29:57.877Z,51.26
2022-09-11T20:35:01.293Z,50.45
2022-09-11T20:40:07.629Z,50.87
2022-09-11T20:45:11.637Z,51.71
2022-09-11T20:50:15.153Z,50.93
2022-09-11T20:55:19.922Z,50.49
2022-09-11T21:00:23.387Z,51.09
2022-09-11T21:05:26.941Z,52.17
2022-09-11T21:10:31.715Z,51.63
2022-09-11T21:15:35.094Z,52.26
2022-09-11T21:20:38.761Z,52.02
2022-09-11T21:25:43.582Z,51.93
2022-09-11T21:30:46.981Z,52.72
2022-09-11T21:35:52.427Z,52.36
2022-09-11T21:40:57.653Z,51.96
2022-09-11T21:46:01.021Z,51.50
2022-09-11T21:51:08.213Z,50.71
2022-09-11T21:56:19.779Z,52.56
2022-09-11T22:01:24.706Z,52.26
2022-09-11T22:06:29.152Z,52.10
2022-09-11T22:11:33.921Z,53.19
2022-09-11T22:16:37.318Z,51.99
2022-09-11T22:21:40.854Z,51.97
2022-09-11T22:26:45.845Z,52.15
2022-09-11T22:31:49.251Z,53.56
2022-09-11T22:36:52.733Z,53.08
2022-09-11T22:41:58.178Z,51.77
2022-09-11T22:47:01.586Z,52.55
2022-09-11T22:52:05.024Z,51.60
2022-09-11T22:57:09.739Z,51.75
2022-09-11T23:02:13.562Z,51.74
2022-09-11T23:07:17.067Z,53.21
2022-09-11T23:12:21.866Z,53.76
2022-09-11T23:17:26.355Z,52.26
2022-09-11T23:22:30.184Z,52.57
2022-09-11T23:27:35.006Z,52.00
2022-09-11T23:32:41.767Z,53.25
2022-09-11T23:37:45.883Z,53.00
2022-09-11T23:42:50.926Z,52.73
2022-09-11T23:47:54.333Z,53.52
2022-09-11T23:52:57.793Z,51.96
2022-09-11T23:58:03.586Z,52.37
